createdAt,value
2023-11-25T00:01:44.433Z,2.62
2023-11-25T00:03:46.224Z,2.64
2023-11-25T00:05:47.695Z,2.34
2023-11-25T00:07:49.298Z,2.49
2023-11-25T00:09:50.834Z,2.42
2023-11-25T00:11:52.269Z,2.42
2023-11-25T00:13:53.867Z,2.36
2023-11-25T00:15:55.508Z,2.41
2023-11-25T00:17:57.148Z,2.40
2023-11-25T00:19:58.798Z,2.48
2023-11-25T00:22:00.350Z,2.55
2023-11-25T00:24:01.783Z,2.51
2023-11-25T00:26:03.462Z,2.47
2023-11-25T00:28:05.526Z,2.41
2023-11-25T00:30:07.750Z,2.38
2023-11-25T00:32:09.409Z,2.45
2023-11-25T00:34:10.983Z,2.49
2023-11-25T00:36:12.471Z,2.25
2023-11-25T00:38:14.170Z,2.40
2023-11-25T00:40:15.632Z,2.59
2023-11-25T00:42:17.093Z,2.42
2023-11-25T00:44:18.678Z,2.23
2023-11-25T00:46:20.530Z,2.27
2023-11-25T00:48:22.074Z,2.31
2023-11-25T00:50:23.724Z,2.41
2023-11-25T00:52:25.267Z,2.46
2023-11-25T00:54:26.705Z,2.39
2023-11-25T00:56:28.320Z,2.28
2023-11-25T00:58:30.562Z,2.41
2023-11-25T01:00:32.081Z,2.41
2023-11-25T01:02:34.079Z,2.31
2023-11-25T01:04:35.882Z,2.36
2023-11-25T01:06:37.321Z,2.29
2023-11-25T01:08:38.866Z,2.19
2023-11-25T01:10:40.667Z,1.94
2023-11-25T01:12:42.130Z,2.19
2023-11-25T01:14:43.858Z,2.03
2023-11-25T01:16:45.415Z,2.19
2023-11-25T01:18:47.122Z,2.37
2023-11-25T01:20:48.672Z,2.30
2023-11-25T01:22:50.811Z,2.17
2023-11-25T01:24:53.197Z,2.03
2023-11-25T01:26:54.700Z,2.06
2023-11-25T01:28:56.219Z,1.98
2023-11-25T01:30:57.642Z,2.01
2023-11-25T01:32:59.315Z,2.09
2023-11-25T01:35:00.939Z,2.24
2023-11-25T01:37:02.385Z,2.16
2023-11-25T01:39:03.975Z,2.36
2023-11-25T01:41:06.603Z,2.50
2023-11-25T01:43:08.278Z,2.45
2023-11-25T01:45:10.474Z,2.51
2023-11-25T01:47:13.701Z,2.39
2023-11-25T01:49:16.731Z,2.51
2023-11-25T01:51:18.477Z,2.32
2023-11-25T01:53:20.788Z,2.46
2023-11-25T01:55:22.336Z,2.22
2023-11-25T01:57:23.909Z,2.26
2023-11-25T01:59:26.758Z,2.47
2023-11-25T02:01:28.771Z,2.48
2023-11-25T02:03:30.348Z,2.46
2023-11-25T02:05:32.245Z,2.28
2023-11-25T02:07:33.764Z,2.27
2023-11-25T02:09:35.564Z,2.06
2023-11-25T02:12:00.309Z,2.01
2023-11-25T02:14:01.746Z,2.06
2023-11-25T02:16:03.648Z,1.80
2023-11-25T02:18:05.496Z,2.05
2023-11-25T02:20:07.971Z,1.93
2023-11-25T02:22:10.320Z,1.96
2023-11-25T02:24:13.000Z,1.97
2023-11-25T02:26:14.421Z,2.03
2023-11-25T02:28:17.660Z,1.95
2023-11-25T02:30:19.191Z,2.00
2023-11-25T02:32:20.716Z,1.92
2023-11-25T02:34:22.467Z,1.92
2023-11-25T02:36:24.012Z,1.72
2023-11-25T02:38:25.456Z,1.85
2023-11-25T02:40:27.185Z,1.82
2023-11-25T02:42:28.807Z,1.99
2023-11-25T02:44:30.291Z,1.69
2023-11-25T02:46:31.936Z,1.77
2023-11-25T02:48:33.617Z,1.57
2023-11-25T02:50:35.054Z,1.68
2023-11-25T02:52:36.689Z,1.89
2023-11-25T02:54:38.309Z,1.89
2023-11-25T02:56:39.926Z,1.73
2023-11-25T02:58:41.385Z,1.60
2023-11-25T03:00:43.395Z,1.34
2023-11-25T03:02:45.239Z,1.24
2023-11-25T03:04:46.850Z,1.60
2023-11-25T03:06:48.420Z,1.61
2023-11-25T03:08:50.027Z,1.49
2023-11-25T03:10:51.457Z,1.71
2023-11-25T03:12:54.544Z,1.58
2023-11-25T03:14:56.069Z,1.55
2023-11-25T03:16:57.800Z,1.62
2023-11-25T03:18:59.578Z,1.49
2023-11-25T03:21:01.185Z,1.51
2023-11-25T03:23:03.201Z,1.51
2023-11-25T03:25:05.320Z,1.46
2023-11-25T03:27:06.932Z,1.53
2023-11-25T03:29:08.397Z,1.54
2023-11-25T03:31:10.214Z,1.42
2023-11-25T03:33:12.011Z,1.50
2023-11-25T03:35:13.681Z,1.47
2023-11-25T03:37:15.363Z,1.62
2023-11-25T03:39:17.177Z,1.81
2023-11-25T03:41:18.619Z,1.48
2023-11-25T03:43:21.191Z,1.65
2023-11-25T03:45:22.826Z,1.45
2023-11-25T03:47:24.252Z,1.51
2023-11-25T03:49:25.900Z,1.62
2023-11-25T03:51:27.580Z,1.37
2023-11-25T03:53:29.025Z,1.54
2023-11-25T03:55:30.774Z,1.56
2023-11-25T03:57:32.612Z,1.53
2023-11-25T03:59:34.047Z,1.50
2023-11-25T04:01:36.097Z,1.35
2023-11-25T04:03:37.725Z,1.25
2023-11-25T04:05:39.160Z,1.41
2023-11-25T04:07:41.025Z,1.26
2023-11-25T04:09:42.624Z,1.33
2023-11-25T04:11:44.107Z,1.41
2023-11-25T04:13:45.797Z,1.43
2023-11-25T04:15:47.385Z,1.58
2023-11-25T04:17:49.474Z,1.51
2023-11-25T04:19:51.385Z,1.53
2023-11-25T04:21:52.919Z,1.44
2023-11-25T04:23:54.392Z,1.27
2023-11-25T04:25:55.940Z,1.34
2023-11-25T04:27:57.551Z,1.26
2023-11-25T04:29:58.982Z,1.29
2023-11-25T04:32:00.749Z,1.44
2023-11-25T04:34:02.580Z,1.43
2023-11-25T04:36:04.287Z,1.31
2023-11-25T04:38:05.793Z,1.49
2023-11-25T04:40:07.762Z,1.66
2023-11-25T04:42:09.215Z,1.55
2023-11-25T04:44:10.698Z,1.67
2023-11-25T04:46:12.542Z,1.35
2023-11-25T04:48:14.108Z,1.35
2023-11-25T04:50:16.627Z,1.59
2023-11-25T04:52:18.580Z,1.38
2023-11-25T04:54:20.055Z,1.47
2023-11-25T04:56:21.547Z,1.36
2023-11-25T04:58:23.115Z,1.49
2023-11-25T05:00:24.716Z,1.46
2023-11-25T05:02:26.221Z,1.57
2023-11-25T05:04:28.048Z,1.46
2023-11-25T05:06:29.484Z,1.38
2023-11-25T05:08:31.000Z,1.43
2023-11-25T05:10:32.552Z,1.46
2023-11-25T05:12:34.073Z,1.46
2023-11-25T05:14:35.622Z,1.62
2023-11-25T05:16:37.188Z,1.52
2023-11-25T05:18:38.701Z,1.45
2023-11-25T05:20:40.245Z,1.16
2023-11-25T05:22:41.893Z,1.39
2023-11-25T05:24:43.369Z,1.40
2023-11-25T05:26:45.044Z,1.28
2023-11-25T05:28:46.712Z,1.41
2023-11-25T05:30:48.142Z,1.40
2023-11-25T05:32:49.952Z,1.36
2023-11-25T05:34:52.524Z,1.47
2023-11-25T05:36:53.976Z,1.34
2023-11-25T05:38:55.415Z,1.38
2023-11-25T05:40:57.005Z,1.26
2023-11-25T05:42:58.573Z,1.40
2023-11-25T05:45:00.215Z,1.33
2023-11-25T05:47:02.017Z,1.23
2023-11-25T05:49:03.871Z,1.25
2023-11-25T05:51:05.645Z,1.32
2023-11-25T05:53:07.247Z,1.10
2023-11-25T05:55:08.850Z,1.19
2023-11-25T05:57:10.477Z,1.24
2023-11-25T05:59:12.104Z,1.19
2023-11-25T06:01:13.577Z,1.01
2023-11-25T06:03:15.119Z,1.15
2023-11-25T06:05:16.844Z,1.04
2023-11-25T06:07:18.318Z,1.20
2023-11-25T06:09:19.967Z,1.20
2023-11-25T06:11:28.797Z,1.13
2023-11-25T06:13:30.402Z,1.16
2023-11-25T06:15:32.019Z,1.14
2023-11-25T06:17:33.717Z,1.25
2023-11-25T06:19:35.294Z,1.14
2023-11-25T06:21:37.010Z,0.96
2023-11-25T06:23:39.516Z,1.10
2023-11-25T06:25:41.268Z,1.05
2023-11-25T06:27:44.556Z,1.06
2023-11-25T06:29:48.062Z,0.98
2023-11-25T06:31:49.645Z,1.22
2023-11-25T06:33:51.280Z,0.92
2023-11-25T06:35:53.535Z,0.98
2023-11-25T06:37:55.057Z,1.02
2023-11-25T06:39:56.714Z,0.97
2023-11-25T06:41:58.705Z,0.83
2023-11-25T06:44:00.325Z,1.02
2023-11-25T06:46:02.017Z,0.69
2023-11-25T06:48:03.691Z,0.96
2023-11-25T06:50:05.528Z,1.03
2023-11-25T06:52:07.228Z,1.22
2023-11-25T06:54:11.754Z,1.08
2023-11-25T06:56:13.273Z,1.05
2023-11-25T06:58:15.368Z,1.04
2023-11-25T07:00:17.250Z,0.86
2023-11-25T07:02:18.773Z,0.95
2023-11-25T07:04:20.321Z,0.89
2023-11-25T07:06:21.919Z,0.60
2023-11-25T07:08:23.406Z,0.80
2023-11-25T07:10:24.917Z,0.80
2023-11-25T07:12:26.562Z,0.87
2023-11-25T07:14:28.052Z,1.07
2023-11-25T07:16:29.623Z,1.19
2023-11-25T07:18:37.270Z,0.94
2023-11-25T07:20:40.115Z,0.99
2023-11-25T07:22:42.513Z,0.93
2023-11-25T07:24:44.203Z,0.88
2023-11-25T07:26:45.633Z,0.93
2023-11-25T07:28:47.163Z,0.95
2023-11-25T07:30:49.650Z,1.22
2023-11-25T07:32:51.078Z,1.00
2023-11-25T07:34:53.197Z,1.01
2023-11-25T07:36:55.512Z,1.11
2023-11-25T07:38:56.915Z,1.30
2023-11-25T07:40:58.870Z,1.15
2023-11-25T07:43:00.710Z,1.34
2023-11-25T07:45:02.153Z,1.40
2023-11-25T07:47:04.001Z,1.66
2023-11-25T07:49:05.684Z,1.50
2023-11-25T07:51:07.124Z,1.30
2023-11-25T07:53:08.908Z,1.19
2023-11-25T07:55:10.795Z,1.19
2023-11-25T07:57:12.256Z,1.49
2023-11-25T07:59:13.718Z,1.69
2023-11-25T08:01:15.269Z,1.45
2023-11-25T08:03:16.891Z,1.41
2023-11-25T08:05:18.453Z,1.45
2023-11-25T08:07:20.142Z,1.19
2023-11-25T08:09:21.592Z,1.07
2023-11-25T08:11:24.228Z,1.14
2023-11-25T08:13:25.806Z,1.27
2023-11-25T08:15:27.222Z,1.31
2023-11-25T08:17:28.771Z,1.45
2023-11-25T08:19:30.322Z,1.40
2023-11-25T08:21:33.013Z,1.38
2023-11-25T08:23:34.476Z,1.38
2023-11-25T08:25:36.138Z,1.08
2023-11-25T08:27:38.732Z,0.56
2023-11-25T08:29:42.858Z,0.93
2023-11-25T08:31:44.675Z,1.01
2023-11-25T08:33:46.218Z,0.93
2023-11-25T08:35:47.704Z,1.01
2023-11-25T08:37:49.449Z,0.80
2023-11-25T08:39:50.991Z,0.99
2023-11-25T08:41:53.324Z,1.06
2023-11-25T08:43:54.861Z,1.09
2023-11-25T08:45:56.343Z,1.33
2023-11-25T08:47:57.818Z,1.40
2023-11-25T08:49:59.355Z,1.12
2023-11-25T08:52:00.858Z,1.40
2023-11-25T08:54:02.371Z,1.22
2023-11-25T08:56:04.119Z,1.39
2023-11-25T08:58:05.671Z,1.46
2023-11-25T09:00:09.047Z,1.36
2023-11-25T09:02:10.652Z,1.45
2023-11-25T09:04:12.186Z,1.53
2023-11-25T09:06:13.759Z,1.54
2023-11-25T09:08:15.536Z,1.53
2023-11-25T09:10:18.043Z,1.52
2023-11-25T09:12:19.668Z,1.46
2023-11-25T09:14:21.480Z,1.63
2023-11-25T09:16:23.002Z,1.65
2023-11-25T09:18:24.473Z,1.44
2023-11-25T09:20:26.115Z,1.86
2023-11-25T09:22:27.650Z,1.67
2023-11-25T09:24:29.313Z,1.57
2023-11-25T09:26:30.861Z,1.77
2023-11-25T09:28:32.329Z,1.57
2023-11-25T09:30:33.934Z,1.77
2023-11-25T09:32:35.629Z,1.79
2023-11-25T09:34:37.150Z,1.72
2023-11-25T09:36:38.737Z,1.42
2023-11-25T09:38:40.443Z,1.36
2023-11-25T09:40:42.037Z,1.33
2023-11-25T09:42:44.982Z,1.30
2023-11-25T09:44:46.932Z,1.55
2023-11-25T09:46:50.673Z,1.52
2023-11-25T09:48:52.337Z,1.18
2023-11-25T09:50:54.508Z,1.34
2023-11-25T09:52:59.907Z,1.51
2023-11-25T09:55:03.322Z,1.58
2023-11-25T09:57:05.289Z,1.80
2023-11-25T09:59:06.824Z,1.88
2023-11-25T10:01:08.474Z,1.94
2023-11-25T10:03:13.285Z,2.01
2023-11-25T10:05:14.932Z,1.63
2023-11-25T10:07:16.433Z,1.71
2023-11-25T10:09:17.937Z,1.63
2023-11-25T10:11:19.481Z,1.86
2023-11-25T10:13:21.009Z,1.89
2023-11-25T10:15:22.634Z,1.86
2023-11-25T10:17:24.961Z,2.10
2023-11-25T10:19:26.515Z,1.93
2023-11-25T10:21:27.980Z,2.02
2023-11-25T10:23:29.486Z,2.06
2023-11-25T10:25:31.394Z,2.36
2023-11-25T10:27:32.899Z,2.35
2023-11-25T10:29:34.503Z,2.55
2023-11-25T10:31:36.194Z,2.67
2023-11-25T10:33:37.674Z,2.15
2023-11-25T10:35:39.294Z,2.33
2023-11-25T10:37:41.915Z,2.16
2023-11-25T10:39:44.521Z,2.45
2023-11-25T10:41:52.500Z,2.53
2023-11-25T10:43:54.396Z,2.41
2023-11-25T10:46:06.334Z,2.24
2023-11-25T10:48:09.182Z,2.08
2023-11-25T10:50:12.078Z,2.15
2023-11-25T10:52:13.520Z,2.39
2023-11-25T10:54:17.533Z,2.22
2023-11-25T10:56:19.325Z,2.43
2023-11-25T10:58:21.391Z,2.47
2023-11-25T11:00:23.138Z,2.73
2023-11-25T11:02:30.435Z,2.81
2023-11-25T11:04:46.240Z,2.65
2023-11-25T11:06:49.608Z,2.66
2023-11-25T11:08:52.530Z,2.51
2023-11-25T11:11:10.974Z,2.45
2023-11-25T11:13:13.646Z,2.18
2023-11-25T11:15:16.371Z,2.12
2023-11-25T11:17:28.636Z,2.07
2023-11-25T11:19:40.758Z,2.10
2023-11-25T11:21:47.013Z,1.87
2023-11-25T11:23:49.047Z,2.12
2023-11-25T11:25:56.870Z,2.11
2023-11-25T11:28:13.373Z,2.06
2023-11-25T11:30:33.117Z,2.10
2023-11-25T11:32:36.344Z,2.39
2023-11-25T11:34:38.953Z,2.29
2023-11-25T11:36:40.835Z,2.10
2023-11-25T11:38:44.493Z,2.23
2023-11-25T11:40:46.063Z,2.14
2023-11-25T11:42:47.811Z,2.48
2023-11-25T11:45:15.467Z,2.29
2023-11-25T11:47:18.740Z,2.24
2023-11-25T11:49:20.276Z,2.54
2023-11-25T11:51:24.251Z,2.37
2023-11-25T11:53:25.971Z,2.82
2023-11-25T11:55:50.557Z,2.91
2023-11-25T11:58:10.370Z,2.96
2023-11-25T12:00:12.660Z,2.42
2023-11-25T12:02:14.267Z,2.66
2023-11-25T12:04:15.981Z,2.56
2023-11-25T12:06:17.554Z,2.15
2023-11-25T12:08:20.221Z,2.13
2023-11-25T12:10:21.901Z,2.27
2023-11-25T12:12:24.336Z,2.26
2023-11-25T12:14:25.845Z,2.12
2023-11-25T12:16:27.424Z,2.10
2023-11-25T12:18:33.748Z,2.20
2023-11-25T12:20:37.015Z,2.22
2023-11-25T12:22:38.609Z,2.14
2023-11-25T12:24:43.377Z,2.45
2023-11-25T12:26:47.842Z,2.49
2023-11-25T12:28:49.493Z,2.53
2023-11-25T12:30:51.561Z,2.27
2023-11-25T12:32:53.194Z,2.22
2023-11-25T12:34:54.899Z,2.40
2023-11-25T12:36:58.025Z,2.35
2023-11-25T12:38:59.515Z,2.36
2023-11-25T12:41:01.098Z,2.12
2023-11-25T12:43:03.104Z,2.25
2023-11-25T12:45:05.008Z,2.47
2023-11-25T12:47:06.545Z,2.36
2023-11-25T12:49:24.687Z,2.45
2023-11-25T12:51:26.301Z,2.54
2023-11-25T12:53:27.773Z,2.47
2023-11-25T12:55:40.168Z,2.68
2023-11-25T12:57:41.695Z,2.61
2023-11-25T12:59:43.163Z,2.54
2023-11-25T13:01:44.917Z,2.75
2023-11-25T13:03:46.533Z,2.69
2023-11-25T13:05:48.320Z,2.48
2023-11-25T13:07:49.876Z,2.47
2023-11-25T13:09:51.327Z,2.63
2023-11-25T13:11:52.847Z,2.43
2023-11-25T13:13:54.381Z,2.50
2023-11-25T13:15:55.819Z,1.99
2023-11-25T13:17:57.384Z,2.32
2023-11-25T13:19:59.106Z,2.01
2023-11-25T13:22:00.594Z,2.06
2023-11-25T13:24:02.239Z,2.33
2023-11-25T13:26:03.817Z,2.31
2023-11-25T13:28:05.434Z,2.34
2023-11-25T13:30:07.421Z,2.26
2023-11-25T13:32:09.095Z,2.34
2023-11-25T13:34:10.535Z,2.13
2023-11-25T13:36:12.240Z,2.12
2023-11-25T13:38:14.460Z,2.06
2023-11-25T13:40:16.016Z,2.35
2023-11-25T13:42:17.592Z,2.10
2023-11-25T13:44:19.179Z,2.09
2023-11-25T13:46:20.638Z,2.28
2023-11-25T13:48:22.156Z,2.27
2023-11-25T13:50:27.418Z,2.18
2023-11-25T13:52:28.883Z,2.19
2023-11-25T13:54:30.757Z,2.11
2023-11-25T13:56:32.444Z,1.89
2023-11-25T13:58:33.988Z,2.01
2023-11-25T14:00:35.581Z,1.87
2023-11-25T14:02:37.301Z,2.12
2023-11-25T14:04:39.684Z,2.04
2023-11-25T14:06:41.157Z,2.00
2023-11-25T14:08:42.812Z,2.17
2023-11-25T14:10:44.904Z,1.98
2023-11-25T14:12:46.520Z,1.95
2023-11-25T14:14:48.519Z,1.88
2023-11-25T14:16:50.722Z,1.96
2023-11-25T14:18:52.228Z,1.94
2023-11-25T14:20:54.134Z,2.07
2023-11-25T14:22:55.660Z,2.35
2023-11-25T14:24:57.155Z,2.24
2023-11-25T14:26:58.931Z,1.83
2023-11-25T14:29:00.793Z,1.96
2023-11-25T14:31:02.286Z,2.06
2023-11-25T14:33:04.004Z,2.11
2023-11-25T14:35:06.591Z,2.36
2023-11-25T14:37:08.020Z,2.26
2023-11-25T14:39:09.659Z,2.05
2023-11-25T14:41:11.264Z,2.04
2023-11-25T14:43:12.787Z,2.46
2023-11-25T14:45:14.316Z,2.13
2023-11-25T14:47:15.971Z,1.96
2023-11-25T14:49:17.601Z,2.10
2023-11-25T14:51:19.171Z,2.07
2023-11-25T14:53:20.881Z,2.14
2023-11-25T14:55:22.298Z,1.99
2023-11-25T14:57:24.017Z,2.17
2023-11-25T14:59:25.604Z,2.13
2023-11-25T15:01:27.143Z,1.91
2023-11-25T15:03:28.973Z,2.10
2023-11-25T15:05:30.692Z,2.25
2023-11-25T15:07:32.190Z,2.29
2023-11-25T15:09:33.908Z,2.05
2023-11-25T15:11:35.492Z,2.13
2023-11-25T15:13:37.040Z,2.11
2023-11-25T15:15:38.639Z,1.95
2023-11-25T15:17:40.248Z,1.98
2023-11-25T15:19:41.761Z,2.10
2023-11-25T15:21:43.317Z,2.07
2023-11-25T15:23:45.487Z,2.08
2023-11-25T15:25:46.950Z,2.24
2023-11-25T15:27:48.551Z,2.01
2023-11-25T15:30:04.420Z,2.19
2023-11-25T15:32:06.203Z,2.04
2023-11-25T15:34:09.406Z,2.02
2023-11-25T15:36:13.037Z,2.08
2023-11-25T15:38:14.501Z,1.95
2023-11-25T15:40:16.228Z,1.99
2023-11-25T15:42:17.858Z,1.83
2023-11-25T15:44:19.305Z,1.97
2023-11-25T15:46:20.984Z,1.71
2023-11-25T15:48:22.594Z,1.71
2023-11-25T15:50:24.038Z,1.89
2023-11-25T15:52:25.670Z,1.97
2023-11-25T15:54:27.295Z,1.62
2023-11-25T15:56:28.784Z,1.73
2023-11-25T15:58:30.519Z,1.87
2023-11-25T16:00:32.139Z,1.88
2023-11-25T16:02:33.630Z,1.60
2023-11-25T16:04:35.213Z,1.71
2023-11-25T16:06:36.737Z,1.69
2023-11-25T16:08:38.165Z,1.71
2023-11-25T16:10:39.716Z,1.79
2023-11-25T16:12:41.455Z,1.69
2023-11-25T16:14:42.880Z,1.85
2023-11-25T16:16:44.458Z,2.00
2023-11-25T16:18:46.080Z,2.09
2023-11-25T16:20:47.500Z,2.02
2023-11-25T16:22:49.813Z,1.97
2023-11-25T16:24:51.364Z,1.95
2023-11-25T16:26:52.817Z,2.08
2023-11-25T16:28:54.391Z,1.73
2023-11-25T16:30:56.003Z,1.91
2023-11-25T16:32:57.890Z,1.68
2023-11-25T16:34:59.897Z,1.78
2023-11-25T16:37:01.501Z,1.86
2023-11-25T16:39:03.208Z,1.92
2023-11-25T16:41:05.287Z,1.67
2023-11-25T16:43:06.862Z,1.62
2023-11-25T16:45:08.591Z,1.49
2023-11-25T16:47:10.240Z,1.62
2023-11-25T16:49:13.667Z,1.45
2023-11-25T16:51:15.187Z,1.58
2023-11-25T16:53:16.791Z,1.65
2023-11-25T16:55:18.330Z,1.71
2023-11-25T16:57:19.794Z,1.81
2023-11-25T16:59:21.451Z,1.46
2023-11-25T17:01:23.115Z,1.60
2023-11-25T17:03:24.834Z,1.69
2023-11-25T17:05:27.866Z,1.71
2023-11-25T17:07:29.669Z,1.72
2023-11-25T17:09:31.160Z,1.63
2023-11-25T17:11:32.982Z,1.58
2023-11-25T17:13:34.680Z,1.47
2023-11-25T17:15:36.145Z,1.47
2023-11-25T17:17:37.886Z,1.31
2023-11-25T17:19:39.605Z,1.56
2023-11-25T17:21:41.085Z,1.69
2023-11-25T17:23:42.716Z,1.46
2023-11-25T17:25:44.625Z,1.65
2023-11-25T17:27:46.251Z,1.77
2023-11-25T17:29:47.775Z,1.54
2023-11-25T17:31:49.597Z,1.34
2023-11-25T17:33:51.591Z,1.52
2023-11-25T17:35:53.147Z,1.53
2023-11-25T17:37:54.648Z,1.25
2023-11-25T17:39:56.117Z,1.43
2023-11-25T17:41:57.752Z,1.38
2023-11-25T17:43:59.380Z,1.31
2023-11-25T17:46:00.863Z,1.38
2023-11-25T17:48:02.569Z,1.30
2023-11-25T17:50:04.418Z,1.39
2023-11-25T17:52:06.196Z,1.30
2023-11-25T17:54:07.809Z,1.30
2023-11-25T17:56:09.695Z,1.28
2023-11-25T17:58:11.201Z,1.14
2023-11-25T18:00:13.029Z,1.06
2023-11-25T18:02:14.777Z,1.01
2023-11-25T18:04:16.394Z,1.18
2023-11-25T18:06:18.344Z,1.32
2023-11-25T18:08:19.932Z,1.32
2023-11-25T18:10:21.388Z,1.22
2023-11-25T18:12:23.030Z,1.23
2023-11-25T18:14:25.069Z,1.15
2023-11-25T18:16:26.535Z,1.09
2023-11-25T18:18:28.225Z,1.30
2023-11-25T18:20:29.892Z,1.46
2023-11-25T18:22:31.361Z,1.25
2023-11-25T18:24:32.907Z,1.14
2023-11-25T18:26:34.482Z,1.23
2023-11-25T18:28:35.940Z,1.23
2023-11-25T18:30:37.554Z,1.27
2023-11-25T18:32:39.268Z,1.40
2023-11-25T18:34:40.795Z,1.40
2023-11-25T18:36:42.332Z,1.41
2023-11-25T18:38:43.834Z,1.29
2023-11-25T18:40:45.306Z,1.45
2023-11-25T18:42:46.946Z,1.53
2023-11-25T18:44:48.632Z,1.16
2023-11-25T18:46:50.243Z,1.22
2023-11-25T18:48:51.876Z,1.32
2023-11-25T18:50:53.311Z,1.35
2023-11-25T18:52:55.194Z,1.25
2023-11-25T18:54:56.856Z,1.03
2023-11-25T18:56:58.378Z,1.28
2023-11-25T18:58:59.926Z,1.24
2023-11-25T19:01:01.613Z,1.28
2023-11-25T19:03:03.287Z,1.39
2023-11-25T19:05:06.070Z,1.71
2023-11-25T19:07:08.037Z,1.39
2023-11-25T19:09:10.009Z,1.45
2023-11-25T19:11:11.490Z,1.38
2023-11-25T19:13:13.041Z,1.12
2023-11-25T19:15:14.677Z,1.23
2023-11-25T19:17:16.275Z,1.03
2023-11-25T19:19:17.993Z,0.94
2023-11-25T19:21:19.598Z,0.76
2023-11-25T19:23:21.025Z,0.95
2023-11-25T19:25:22.725Z,0.96
2023-11-25T19:27:24.224Z,0.86
2023-11-25T19:29:25.653Z,0.77
2023-11-25T19:31:27.346Z,0.80
2023-11-25T19:33:29.065Z,0.93
2023-11-25T19:35:30.547Z,0.94
2023-11-25T19:37:32.186Z,0.91
2023-11-25T19:39:33.811Z,0.85
2023-11-25T19:41:35.294Z,0.85
2023-11-25T19:43:37.098Z,0.70
2023-11-25T19:45:38.737Z,0.47
2023-11-25T19:47:40.209Z,0.37
2023-11-25T19:49:41.840Z,0.42
2023-11-25T19:51:43.492Z,0.53
2023-11-25T19:53:50.629Z,0.47
2023-11-25T19:55:53.534Z,0.42
2023-11-25T19:57:55.183Z,0.38
2023-11-25T19:59:56.655Z,0.09
2023-11-25T20:01:58.421Z,0.09
2023-11-25T20:04:00.045Z,0.35
2023-11-25T20:06:01.490Z,0.40
2023-11-25T20:08:03.079Z,0.25
2023-11-25T20:10:05.083Z,0.23
2023-11-25T20:12:07.780Z,0.02
2023-11-25T20:14:09.400Z,0.13
2023-11-25T20:16:11.051Z,-0.03
2023-11-25T20:18:12.559Z,-0.06
2023-11-25T20:20:14.163Z,-0.10
2023-11-25T20:22:16.563Z,-0.06
2023-11-25T20:24:17.991Z,0.14
2023-11-25T20:26:19.538Z,-0.06
2023-11-25T20:28:21.078Z,-0.12
2023-11-25T20:30:22.510Z,0.20
2023-11-25T20:32:24.185Z,0.06
2023-11-25T20:34:25.714Z,0.18
2023-11-25T20:36:27.142Z,-0.19
2023-11-25T20:38:28.711Z,0.00
2023-11-25T20:40:30.460Z,-0.03
2023-11-25T20:42:31.921Z,0.07
2023-11-25T20:44:33.725Z,0.00
2023-11-25T20:46:35.337Z,-0.10
2023-11-25T20:48:36.798Z,-0.12
2023-11-25T20:50:38.691Z,-0.27
2023-11-25T20:52:40.506Z,-0.26
2023-11-25T20:54:41.981Z,-0.27
2023-11-25T20:56:43.555Z,-0.24
2023-11-25T20:58:46.119Z,-0.43
2023-11-25T21:00:47.657Z,-0.32
2023-11-25T21:02:49.600Z,-0.04
2023-11-25T21:04:52.063Z,-0.32
2023-11-25T21:06:53.489Z,-0.36
2023-11-25T21:08:55.046Z,-0.20
2023-11-25T21:10:56.800Z,-0.29
2023-11-25T21:12:58.423Z,-0.29
2023-11-25T21:14:59.992Z,-0.37
2023-11-25T21:17:01.534Z,-0.41
2023-11-25T21:19:03.001Z,-0.30
2023-11-25T21:21:04.647Z,-0.38
2023-11-25T21:23:06.257Z,-0.21
2023-11-25T21:25:08.070Z,-0.31
2023-11-25T21:27:09.606Z,-0.29
2023-11-25T21:29:11.276Z,-0.14
2023-11-25T21:31:12.719Z,-0.18
2023-11-25T21:33:14.478Z,-0.25
2023-11-25T21:35:16.369Z,-0.21
2023-11-25T21:37:17.863Z,-0.23
2023-11-25T21:39:19.464Z,-0.30
2023-11-25T21:41:21.049Z,-0.24
2023-11-25T21:43:22.522Z,-0.25
2023-11-25T21:45:24.202Z,-0.36
2023-11-25T21:47:25.812Z,-0.21
2023-11-25T21:49:27.289Z,-0.35
2023-11-25T21:51:28.910Z,-0.37
2023-11-25T21:53:30.455Z,-0.42
2023-11-25T21:55:31.886Z,-0.53
2023-11-25T21:57:33.488Z,-0.43
2023-11-25T21:59:35.080Z,-0.32
2023-11-25T22:01:36.620Z,-0.20
2023-11-25T22:03:41.083Z,-0.30
2023-11-25T22:05:42.766Z,-0.16
2023-11-25T22:07:44.299Z,-0.49
2023-11-25T22:09:45.756Z,-0.40
2023-11-25T22:11:47.276Z,-0.72
2023-11-25T22:13:48.749Z,-0.47
2023-11-25T22:15:50.401Z,-0.60
2023-11-25T22:17:52.150Z,-0.57
2023-11-25T22:19:53.918Z,-0.71
2023-11-25T22:21:55.651Z,-0.61
2023-11-25T22:23:57.237Z,-0.89
2023-11-25T22:25:58.734Z,-0.73
2023-11-25T22:28:00.245Z,-0.56
2023-11-25T22:30:01.765Z,-0.85
2023-11-25T22:32:03.396Z,-0.64
2023-11-25T22:34:04.887Z,-0.83
2023-11-25T22:36:06.687Z,-0.61
2023-11-25T22:38:08.140Z,-0.64
2023-11-25T22:40:09.995Z,-0.68
2023-11-25T22:42:11.609Z,-0.84
2023-11-25T22:44:13.099Z,-0.66
2023-11-25T22:46:22.508Z,-0.62
2023-11-25T22:48:24.246Z,-0.61
2023-11-25T22:50:25.702Z,-0.57
2023-11-25T22:52:27.188Z,-0.51
2023-11-25T22:54:28.812Z,-0.82
2023-11-25T22:56:30.241Z,-0.87
2023-11-25T22:58:31.853Z,-0.91
2023-11-25T23:00:33.437Z,-0.80
2023-11-25T23:02:35.109Z,-1.09
2023-11-25T23:04:36.956Z,-0.98
2023-11-25T23:06:38.642Z,-0.75
2023-11-25T23:08:40.050Z,-0.99
2023-11-25T23:10:41.697Z,-0.94
2023-11-25T23:12:43.328Z,-0.76
2023-11-25T23:14:44.825Z,-0.73
2023-11-25T23:16:46.313Z,-0.90
2023-11-25T23:18:47.947Z,-0.95
2023-11-25T23:20:49.377Z,-0.71
2023-11-25T23:22:50.906Z,-0.96
2023-11-25T23:24:52.464Z,-1.02
2023-11-25T23:26:53.903Z,-0.89
2023-11-25T23:28:55.394Z,-1.06
2023-11-25T23:30:57.157Z,-1.03
2023-11-25T23:32:58.652Z,-0.73
2023-11-25T23:35:00.465Z,-0.72
2023-11-25T23:37:02.072Z,-0.90
2023-11-25T23:39:03.620Z,-0.73
2023-11-25T23:41:05.369Z,-0.72
2023-11-25T23:43:07.043Z,-0.30
2023-11-25T23:45:08.817Z,-0.58
2023-11-25T23:47:10.377Z,-0.57
2023-11-25T23:49:11.935Z,-0.61
2023-11-25T23:51:13.432Z,-0.47
2023-11-25T23:53:15.441Z,-0.70
2023-11-25T23:55:17.066Z,-0.46
2023-11-25T23:57:18.488Z,-0.49
2023-11-25T23:59:20.067Z,-0.34
